^^
Saratoga-Weather Station Historical Data
Daily Summary for June 29, 2020 Units:  English    Metric   Both
Daily Weekly Monthly Yearly Custom
  High: Low: Average:
Temperature: 72 °F 52.2 °F 61.3 °F
Dew Point: 56.1 °F 48.9 °F 52.5 °F
Humidity: 96% 45% 75%
Wind Speed: 10.1mph 0mph 1.7mph
Wind Gust: 18mph - -
Wind- - WSW
Pressure: 29.7 in 29.6 in -
Precipitation: 0.01 in    
Historical Graphs
 
 
Tabular Data for June 29, 2020
Time Temperature Dew Point Pressure Wind Wind Speed Wind Gust Humidity Rainfall Rate (Hourly) solar
00:01 54.9 °F 52.9 °F 29.6 in Calm     93% 0 in 0 W/m2
00:06 54.7 °F 52.7 °F 29.6 in Calm     93% 0 in 0 W/m2
00:11 54.7 °F 52.7 °F 29.6 in Calm   1 mph 93% 0 in 0 W/m2
00:16 54.3 °F 52.3 °F 29.6 in Calm     93% 0 in 0 W/m2
00:21 54.1 °F 52.2 °F 29.6 in Calm     93% 0 in 0 W/m2
00:26 54 °F 52 °F 29.6 in Calm   2 mph 93% 0 in 0 W/m2
00:31 54 °F 52 °F 29.6 in Calm     93% 0 in 0 W/m2
00:36 54 °F 52.3 °F 29.6 in Calm   2 mph 94% 0 in 0 W/m2
00:41 54 °F 52.3 °F 29.6 in Calm     94% 0 in 0 W/m2
00:46 54 °F 52.3 °F 29.6 in Calm     94% 0 in 0 W/m2
00:51 54.1 °F 52.5 °F 29.6 in Calm     94% 0 in 0 W/m2
00:56 54.1 °F 52.5 °F 29.6 in Calm     94% 0 in 0 W/m2
01:01 54.1 °F 52.5 °F 29.6 in Calm     94% 0 in 0 W/m2
01:06 54.1 °F 52.5 °F 29.6 in Calm     94% 0 in 0 W/m2
01:11 54.1 °F 52.5 °F 29.6 in Calm     94% 0 in 0 W/m2
01:16 54.1 °F 52.5 °F 29.6 in Calm     94% 0 in 0 W/m2
01:21 54.1 °F 52.7 °F 29.6 in Calm     95% 0 in 0 W/m2
01:26 54.1 °F 52.7 °F 29.6 in Calm     95% 0 in 0 W/m2
01:31 54.3 °F 52.9 °F 29.6 in Calm   2 mph 95% 0 in 0 W/m2
01:36 55 °F 53.6 °F 29.6 in Calm   2 mph 95% 0 in 0 W/m2
01:41 55.2 °F 54.1 °F 29.6 in Calm   2 mph 96% 0 in 0 W/m2
01:46 55.6 °F 54.5 °F 29.6 in Calm   3 mph 96% 0 in 0 W/m2
01:51 55.8 °F 54.3 °F 29.6 in WNW 0.9 mph 1 mph 95% 0 in 0 W/m2
01:56 55.9 °F 54.9 °F 29.6 in Calm     96% 0 in 0 W/m2
02:01 55.9 °F 54.5 °F 29.6 in NW 0.9 mph 1 mph 95% 0 in 0 W/m2
02:06 56.1 °F 54.7 °F 29.6 in Calm   1 mph 95% 0 in 0 W/m2
02:11 56.1 °F 54.7 °F 29.6 in WSW 0.9 mph 2 mph 95% 0 in 0 W/m2
02:16 56.1 °F 54.7 °F 29.6 in NW 0.9 mph 1 mph 95% 0 in 0 W/m2
02:21 56.3 °F 54.9 °F 29.6 in Calm   3 mph 95% 0 in 0 W/m2
02:27 56.3 °F 54.9 °F 29.6 in Calm   1 mph 95% 0 in 0 W/m2
02:32 56.1 °F 54.7 °F 29.6 in NNW 0.9 mph 2 mph 95% 0 in 0 W/m2
02:37 56.1 °F 54.7 °F 29.6 in NNW 0.9 mph 2 mph 95% 0 in 0 W/m2
02:42 56.1 °F 54.7 °F 29.6 in North 0.9 mph 2 mph 95% 0 in 0 W/m2
02:47 56.1 °F 54.5 °F 29.6 in Calm     94% 0 in 0 W/m2
02:52 56.1 °F 54.5 °F 29.6 in Calm   3 mph 94% 0 in 0 W/m2
02:57 55.9 °F 54.3 °F 29.6 in Calm   1 mph 94% 0 in 0 W/m2
03:02 55.9 °F 54.3 °F 29.6 in SE 0.9 mph 2 mph 94% 0 in 0 W/m2
03:07 55.8 °F 54.1 °F 29.6 in Calm   1 mph 94% 0 in 0 W/m2
03:12 55.8 °F 54.1 °F 29.6 in Calm   2 mph 94% 0 in 0 W/m2
03:17 55.6 °F 54 °F 29.6 in Calm   1 mph 94% 0 in 0 W/m2
03:22 55.4 °F 53.8 °F 29.6 in NE 2 mph 2 mph 94% 0 in 0 W/m2
03:27 55.4 °F 53.8 °F 29.6 in Calm     94% 0 in 0 W/m2
03:32 55.2 °F 53.6 °F 29.6 in Calm   2 mph 94% 0 in 0 W/m2
03:37 55 °F 53.4 °F 29.6 in NW 0.9 mph 2 mph 94% 0 in 0 W/m2
03:42 55 °F 53.4 °F 29.6 in NNW 0.9 mph 2 mph 94% 0 in 0 W/m2
03:47 55 °F 53.4 °F 29.6 in NNE 0.9 mph 2 mph 94% 0 in 0 W/m2
03:52 55 °F 53.4 °F 29.6 in Calm   1 mph 94% 0 in 0 W/m2
03:57 54.9 °F 53.2 °F 29.6 in Calm   2 mph 94% 0 in 0 W/m2
04:02 54.9 °F 53.2 °F 29.6 in Calm   1 mph 94% 0 in 0 W/m2
04:07 54.7 °F 53.1 °F 29.6 in Calm   2 mph 94% 0 in 0 W/m2
04:13 54.7 °F 53.1 °F 29.6 in Calm   1 mph 94% 0 in 0 W/m2
04:18 54.7 °F 53.1 °F 29.6 in Calm   1 mph 94% 0 in 0 W/m2
04:23 54.3 °F 52.7 °F 29.6 in Calm   3 mph 94% 0 in 0 W/m2
04:28 54.3 °F 52.7 °F 29.6 in Calm     94% 0 in 0 W/m2
04:33 54.5 °F 52.5 °F 29.6 in NNE 2 mph 3 mph 93% 0 in 0 W/m2
04:38 54.5 °F 52.5 °F 29.6 in NNE 0.9 mph 2 mph 93% 0 in 0 W/m2
04:43 54.5 °F 52.5 °F 29.6 in North 0.9 mph 2 mph 93% 0 in 0 W/m2
04:48 54.7 °F 52.7 °F 29.6 in NW 0.9 mph 2 mph 93% 0 in 0 W/m2
04:53 54.5 °F 52.2 °F 29.6 in Calm   1 mph 92% 0 in 0 W/m2
04:58 54.3 °F 52 °F 29.6 in Calm   2 mph 92% 0 in 0 W/m2
05:03 54.3 °F 52.3 °F 29.6 in Calm   1 mph 93% 0 in 0 W/m2
05:08 54.3 °F 52.3 °F 29.6 in Calm     93% 0 in 0 W/m2
05:13 54.1 °F 52.2 °F 29.6 in Calm     93% 0 in 0 W/m2
05:18 54.3 °F 52.3 °F 29.6 in NW 0.9 mph 1 mph 93% 0 in 0 W/m2
05:23 54.3 °F 52.3 °F 29.6 in Calm   2 mph 93% 0 in 0 W/m2
05:28 54.7 °F 52.3 °F 29.6 in NNW 2 mph 2 mph 92% 0.01 in 0 W/m2
05:33 54.9 °F 52.5 °F 29.6 in Calm   1 mph 92% 0.01 in 0 W/m2
05:38 55 °F 52.7 °F 29.6 in Calm     92% 0.01 in 0 W/m2
05:43 55 °F 52.5 °F 29.6 in NNW 0.9 mph 1 mph 91% 0.01 in 0 W/m2
05:48 55 °F 52.5 °F 29.6 in NW 0.9 mph 4 mph 91% 0.01 in 0 W/m2
05:53 55 °F 52.5 °F 29.6 in Calm   1 mph 91% 0.01 in 0 W/m2
05:58 55 °F 52.5 °F 29.6 in Calm   2 mph 91% 0.01 in 0 W/m2
06:03 55 °F 52.2 °F 29.6 in NNW 0.9 mph 1 mph 90% 0.01 in 0 W/m2
06:08 55 °F 52.2 °F 29.6 in North 0.9 mph 2 mph 90% 0.01 in 0 W/m2
06:13 54.9 °F 52 °F 29.6 in Calm     90% 0.01 in 0 W/m2
06:18 54.9 °F 52 °F 29.6 in Calm   2 mph 90% 0.01 in 0 W/m2
06:23 54.7 °F 52.2 °F 29.6 in ENE 0.9 mph 2 mph 91% 0.01 in 0 W/m2
06:28 54.3 °F 51.8 °F 29.6 in Calm   1 mph 91% 0 in 0 W/m2
06:33 54 °F 51.4 °F 29.6 in ENE 0.9 mph 2 mph 91% 0 in 0 W/m2
06:38 53.8 °F 51.3 °F 29.6 in Calm   1 mph 91% 0 in 0 W/m2
06:43 53.4 °F 51.1 °F 29.6 in Calm   1 mph 92% 0 in 0 W/m2
06:48 53.2 °F 50.9 °F 29.6 in Calm     92% 0 in 0 W/m2
06:53 53.1 °F 50.7 °F 29.6 in Calm     92% 0 in 0 W/m2
06:58 52.7 °F 50.4 °F 29.6 in Calm     92% 0 in 0 W/m2
07:03 52.5 °F 50.5 °F 29.6 in Calm     93% 0 in 5 W/m2
07:08 52.3 °F 50.4 °F 29.6 in Calm     93% 0 in 7 W/m2
07:13 52.2 °F 50.2 °F 29.6 in Calm     93% 0 in 9 W/m2
07:18 52.2 °F 50.5 °F 29.6 in Calm     94% 0 in 14 W/m2
07:23 52.2 °F 50.5 °F 29.6 in Calm     94% 0 in 14 W/m2
07:28 52.2 °F 50.5 °F 29.6 in Calm   1 mph 94% 0 in 18 W/m2
07:33 52.2 °F 50.5 °F 29.6 in Calm   1 mph 94% 0 in 18 W/m2
07:38 52.3 °F 50.9 °F 29.6 in East 0.9 mph 2 mph 95% 0 in 19 W/m2
07:43 52.5 °F 51.1 °F 29.6 in ENE 0.9 mph 2 mph 95% 0 in 21 W/m2
07:48 52.9 °F 51.3 °F 29.6 in Calm     94% 0 in 23 W/m2
07:53 53.1 °F 51.4 °F 29.6 in Calm     94% 0 in 26 W/m2
07:59 53.1 °F 51.6 °F 29.6 in Calm     95% 0 in 33 W/m2
08:04 53.4 °F 51.8 °F 29.6 in NE 0.9 mph 4 mph 94% 0 in 35 W/m2
08:09 54 °F 52.3 °F 29.6 in Calm     94% 0 in 39 W/m2
08:14 54.3 °F 52.7 °F 29.6 in Calm   3 mph 94% 0 in 42 W/m2
08:19 54.9 °F 52.9 °F 29.7 in Calm     93% 0 in 49 W/m2
08:24 55.6 °F 53.2 °F 29.7 in Calm   2 mph 92% 0 in 42 W/m2
08:29 55.9 °F 53.4 °F 29.7 in NNW 0.9 mph 2 mph 91% 0 in 33 W/m2
08:34 56.5 °F 54 °F 29.7 in ENE 2 mph 2 mph 91% 0 in 40 W/m2
08:39 56.8 °F 53.6 °F 29.7 in Calm   1 mph 89% 0 in 172 W/m2
08:44 57 °F 53.4 °F 29.7 in WSW 0.9 mph 2 mph 88% 0 in 218 W/m2
08:49 57.4 °F 53.8 °F 29.7 in WSW 2.9 mph 4 mph 88% 0 in 236 W/m2
08:54 57.6 °F 53.8 °F 29.7 in ESE 2 mph 3 mph 87% 0 in 246 W/m2
08:59 57.9 °F 54.1 °F 29.7 in Calm   4 mph 87% 0 in 260 W/m2
09:04 58.1 °F 54 °F 29.7 in Calm   7 mph 86% 0 in 274 W/m2
09:09 58.3 °F 54.1 °F 29.7 in Calm   1 mph 86% 0 in 290 W/m2
09:14 58.5 °F 54 °F 29.7 in WNW 4 mph 5 mph 85% 0 in 288 W/m2
09:19 58.5 °F 54 °F 29.7 in South 0.9 mph 3 mph 85% 0 in 47 W/m2
09:24 58.8 °F 54.3 °F 29.7 in SSW 0.9 mph 2 mph 85% 0 in 311 W/m2
09:29 59 °F 54.5 °F 29.7 in WNW 4.9 mph 5 mph 85% 0 in 348 W/m2
09:35 59.2 °F 54.3 °F 29.7 in West 2 mph 6 mph 84% 0 in 373 W/m2
09:40 59.5 °F 55 °F 29.7 in NW 0.9 mph 3 mph 85% 0 in 385 W/m2
09:45 59.7 °F 55.2 °F 29.7 in WNW 2 mph 3 mph 85% 0 in 123 W/m2
09:50 59.9 °F 55 °F 29.7 in ESE 0.9 mph 8 mph 84% 0 in 448 W/m2
09:55 60.3 °F 55 °F 29.7 in WSW 0.9 mph 7 mph 83% 0 in 160 W/m2
10:00 60.4 °F 55.2 °F 29.7 in East 2 mph 8 mph 83% 0 in 524 W/m2
10:05 61.2 °F 55.6 °F 29.7 in NE 2 mph 3 mph 82% 0 in 555 W/m2
10:10 61.5 °F 54.9 °F 29.7 in NNW 4 mph 7 mph 79% 0 in 172 W/m2
10:15 61.9 °F 55.6 °F 29.7 in WNW 0.9 mph 4 mph 80% 0 in 585 W/m2
10:20 61.9 °F 55.2 °F 29.7 in WNW 4 mph 9 mph 79% 0 in 543 W/m2
10:26 62.1 °F 55.8 °F 29.7 in NW 2 mph 3 mph 80% 0 in 666 W/m2
10:31 62.2 °F 55.6 °F 29.7 in SW 0.9 mph 4 mph 79% 0 in 543 W/m2
10:36 62.4 °F 55.8 °F 29.7 in West 6 mph 7 mph 79% 0 in 322 W/m2
10:41 62.4 °F 55 °F 29.7 in WNW 4 mph 11 mph 77% 0 in 596 W/m2
10:46 62.6 °F 55.6 °F 29.7 in WNW 2.9 mph 5 mph 78% 0 in 650 W/m2
10:51 62.6 °F 55.2 °F 29.7 in SE 2 mph 10 mph 77% 0 in 668 W/m2
10:56 62.6 °F 55.2 °F 29.7 in NW 2.9 mph 3 mph 77% 0 in 675 W/m2
11:01 63 °F 55.6 °F 29.7 in NW 4.9 mph 7 mph 77% 0 in 626 W/m2
11:06 63.1 °F 55.8 °F 29.7 in NW 2 mph 3 mph 77% 0 in 673 W/m2
11:11 63 °F 54.9 °F 29.7 in NW 4.9 mph 5 mph 75% 0 in 837 W/m2
11:16 63.3 °F 55.2 °F 29.7 in NE 2 mph 8 mph 75% 0 in 332 W/m2
11:21 63.7 °F 55.6 °F 29.7 in Calm   6 mph 75% 0 in 360 W/m2
11:26 64 °F 55.2 °F 29.7 in WNW 2 mph 6 mph 73% 0 in 840 W/m2
11:31 64.6 °F 56.1 °F 29.7 in WNW 4.9 mph 7 mph 74% 0 in 271 W/m2
11:36 64.6 °F 55.4 °F 29.7 in West 6 mph 8 mph 72% 0 in 227 W/m2
11:41 64.4 °F 55.2 °F 29.7 in Calm   3 mph 72% 0 in 735 W/m2
11:46 64.9 °F 55.4 °F 29.7 in NNW 4 mph 7 mph 71% 0 in 744 W/m2
11:51 65.1 °F 54.7 °F 29.7 in WSW 2.9 mph 5 mph 69% 0 in 761 W/m2
11:56 65.8 °F 56.1 °F 29.7 in WNW 4.9 mph 5 mph 71% 0 in 896 W/m2
12:01 66 °F 55.2 °F 29.7 in NW 4.9 mph 8 mph 68% 0 in 202 W/m2
12:06 65.1 °F 54.3 °F 29.7 in WNW 2 mph 6 mph 68% 0 in 125 W/m2
12:11 64.9 °F 54.1 °F 29.7 in NNW 2 mph 7 mph 68% 0 in 137 W/m2
12:16 64.9 °F 53.8 °F 29.7 in NE 0.9 mph 5 mph 67% 0 in 814 W/m2
12:21 65.7 °F 55.2 °F 29.7 in WSW 4 mph 7 mph 69% 0 in 821 W/m2
12:26 66.7 °F 53.2 °F 29.7 in North 4.9 mph 8 mph 62% 0 in 919 W/m2
12:31 67.3 °F 53.8 °F 29.7 in West 6 mph 7 mph 62% 0 in 810 W/m2
12:36 67.6 °F 54.7 °F 29.7 in NNW 4 mph 12 mph 63% 0 in 777 W/m2
12:41 67.5 °F 53.1 °F 29.7 in NNW 0.9 mph 7 mph 60% 0 in 789 W/m2
12:46 67.6 °F 52.9 °F 29.7 in NNW 4.9 mph 8 mph 59% 0 in 826 W/m2
12:51 68 °F 53.6 °F 29.7 in WNW 8.1 mph 10 mph 60% 0 in 889 W/m2
12:56 68.2 °F 52.9 °F 29.7 in NW 4 mph 14 mph 58% 0 in 248 W/m2
13:01 68 °F 53.6 °F 29.7 in WNW 2.9 mph 7 mph 60% 0 in 879 W/m2
13:06 68.2 °F 53.8 °F 29.7 in NNW 2.9 mph 11 mph 60% 0 in 216 W/m2
13:11 68.5 °F 53.2 °F 29.7 in WNW 4 mph 4 mph 58% 0 in 956 W/m2
13:16 68.7 °F 54.3 °F 29.7 in West 8.9 mph 11 mph 60% 0 in 276 W/m2
13:21 67.6 °F 54.7 °F 29.7 in West 2 mph 9 mph 63% 0 in 288 W/m2
13:26 67.5 °F 54.5 °F 29.7 in WNW 2.9 mph 7 mph 63% 0 in 902 W/m2
13:31 67.8 °F 55.2 °F 29.7 in WNW 0.9 mph 4 mph 64% 0 in 863 W/m2
13:36 68.4 °F 54.9 °F 29.7 in West 4 mph 8 mph 62% 0 in 972 W/m2
13:41 68 °F 53.1 °F 29.7 in SE 4 mph 6 mph 59% 0 in 339 W/m2
13:46 68.4 °F 54 °F 29.7 in NW 4.9 mph 7 mph 60% 0 in 895 W/m2
13:51 68.4 °F 53.1 °F 29.7 in NW 6 mph 7 mph 58% 0 in 216 W/m2
13:56 68.2 °F 53.8 °F 29.7 in West 6.9 mph 7 mph 60% 0 in 926 W/m2
14:01 69.1 °F 54.1 °F 29.7 in WSW 2.9 mph 6 mph 59% 0 in 914 W/m2
14:06 69.4 °F 52.5 °F 29.7 in North 2 mph 8 mph 55% 0 in 1027 W/m2
14:11 69.4 °F 53.6 °F 29.7 in WSW 4.9 mph 14 mph 57% 0 in 921 W/m2
14:16 69.4 °F 53.1 °F 29.7 in NW 4 mph 11 mph 56% 0 in 828 W/m2
14:21 69.1 °F 53.2 °F 29.7 in NNW 2 mph 3 mph 57% 0 in 802 W/m2
14:26 69.3 °F 52.3 °F 29.7 in North 2 mph 9 mph 55% 0 in 807 W/m2
14:31 69.4 °F 52.5 °F 29.7 in West 6.9 mph 18 mph 55% 0 in 803 W/m2
14:36 69.4 °F 53.1 °F 29.7 in Calm   2 mph 56% 0 in 807 W/m2
14:41 69.6 °F 53.8 °F 29.7 in West 4 mph 13 mph 57% 0 in 204 W/m2
14:46 69.6 °F 53.8 °F 29.7 in Calm   4 mph 57% 0 in 151 W/m2
14:51 70 °F 53.1 °F 29.7 in West 10.1 mph 11 mph 55% 0 in 206 W/m2
14:56 69.4 °F 52.5 °F 29.7 in WSW 4.9 mph 5 mph 55% 0 in 213 W/m2
15:01 69.1 °F 52.7 °F 29.7 in ENE 2.9 mph 3 mph 56% 0 in 868 W/m2
15:06 70 °F 53.1 °F 29.7 in WNW 2.9 mph 3 mph 55% 0 in 893 W/m2
15:11 70 °F 52.5 °F 29.7 in WNW 2.9 mph 6 mph 54% 0 in 163 W/m2
15:16 70.2 °F 53.8 °F 29.7 in West 6 mph 7 mph 56% 0 in 900 W/m2
15:21 70.3 °F 52.3 °F 29.7 in WSW 2.9 mph 6 mph 53% 0 in 912 W/m2
15:26 70.7 °F 52.2 °F 29.7 in WSW 8.1 mph 13 mph 52% 0 in 861 W/m2
15:31 70.2 °F 51.8 °F 29.7 in WSW 4 mph 9 mph 52% 0 in 891 W/m2
15:36 69.8 °F 51.4 °F 29.7 in WNW 2.9 mph 13 mph 52% 0 in 199 W/m2
15:41 69.6 °F 52.2 °F 29.7 in West 2 mph 4 mph 54% 0 in 824 W/m2
15:46 70.2 °F 51.8 °F 29.7 in ESE 4 mph 6 mph 52% 0 in 821 W/m2
15:51 70.5 °F 52 °F 29.7 in WSW 2.9 mph 5 mph 52% 0 in 816 W/m2
15:56 70.7 °F 51.6 °F 29.7 in NNW 2.9 mph 7 mph 51% 0 in 737 W/m2
16:01 70.9 °F 51.8 °F 29.7 in WNW 2.9 mph 7 mph 51% 0 in 721 W/m2
16:06 70.9 °F 51.8 °F 29.7 in Calm   7 mph 51% 0 in 744 W/m2
16:11 71.4 °F 51.3 °F 29.6 in NNW 6 mph 8 mph 49% 0 in 726 W/m2
16:16 71.2 °F 51.1 °F 29.7 in WSW 4 mph 9 mph 49% 0 in 638 W/m2
16:21 70.9 °F 51.3 °F 29.7 in WSW 6.9 mph 10 mph 50% 0 in 740 W/m2
16:26 70.5 °F 50.4 °F 29.7 in West 2 mph 5 mph 49% 0 in 710 W/m2
16:31 71.1 °F 50.4 °F 29.7 in North 4.9 mph 8 mph 48% 0 in 724 W/m2
16:36 71.2 °F 51.1 °F 29.7 in WNW 4 mph 8 mph 49% 0 in 302 W/m2
16:41 71.4 °F 49.6 °F 29.7 in WSW 4 mph 12 mph 46% 0 in 202 W/m2
16:46 71.4 °F 49.6 °F 29.7 in WNW 2 mph 8 mph 46% 0 in 663 W/m2
16:51 71.8 °F 51.1 °F 29.7 in West 2 mph 4 mph 48% 0 in 615 W/m2
16:56 72 °F 51.3 °F 29.7 in NW 4.9 mph 8 mph 48% 0 in 589 W/m2
17:01 71.4 °F 50.2 °F 29.7 in WNW 2 mph 6 mph 47% 0 in 204 W/m2
17:06 71.2 °F 49.5 °F 29.7 in West 4 mph 5 mph 46% 0 in 577 W/m2
17:11 71.4 °F 49.6 °F 29.6 in WNW 2.9 mph 3 mph 46% 0 in 568 W/m2
17:16 71.8 °F 49.8 °F 29.7 in WNW 2 mph 10 mph 46% 0 in 561 W/m2
17:21 71.8 °F 49.3 °F 29.7 in WNW 4.9 mph 7 mph 45% 0 in 575 W/m2
17:26 71.4 °F 48.9 °F 29.7 in West 8.1 mph 10 mph 45% 0 in 107 W/m2
17:31 71.2 °F 49.5 °F 29.7 in WNW 2.9 mph 4 mph 46% 0 in 573 W/m2
17:37 71.6 °F 50.4 °F 29.7 in West 2.9 mph 3 mph 47% 0 in 547 W/m2
17:42 71.4 °F 49.6 °F 29.7 in West 4 mph 14 mph 46% 0 in 114 W/m2
17:47 71.1 °F 49.3 °F 29.7 in Calm   2 mph 46% 0 in 524 W/m2
17:52 70.9 °F 49.6 °F 29.7 in West 4 mph 14 mph 47% 0 in 121 W/m2
17:57 70.5 °F 49.3 °F 29.7 in WSW 2 mph 4 mph 47% 0 in 216 W/m2
18:02 70.7 °F 50 °F 29.7 in WNW 2.9 mph 7 mph 48% 0 in 462 W/m2
18:07 70.5 °F 50.4 °F 29.7 in West 2 mph 10 mph 49% 0 in 132 W/m2
18:12 70.2 °F 50.2 °F 29.7 in WNW 4 mph 5 mph 49% 0 in 84 W/m2
18:17 69.6 °F 50.2 °F 29.7 in WSW 2.9 mph 9 mph 50% 0 in 81 W/m2
18:22 69.4 °F 50.5 °F 29.7 in NW 4 mph 4 mph 51% 0 in 107 W/m2
18:27 69.6 °F 50.7 °F 29.7 in NW 4.9 mph 9 mph 51% 0 in 127 W/m2
18:32 69.6 °F 50.2 °F 29.7 in WSW 4.9 mph 8 mph 50% 0 in 123 W/m2
18:37 69.3 °F 50.4 °F 29.7 in West 2 mph 8 mph 51% 0 in 100 W/m2
18:42 68.9 °F 50.5 °F 29.7 in West 4 mph 8 mph 52% 0 in 58 W/m2
18:47 68.7 °F 50.9 °F 29.7 in WNW 4 mph 4 mph 53% 0 in 46 W/m2
18:52 68.5 °F 51.3 °F 29.7 in WNW 0.9 mph 4 mph 54% 0 in 121 W/m2
18:57 68.7 °F 51.4 °F 29.7 in WNW 4 mph 7 mph 54% 0 in 77 W/m2
19:02 68.5 °F 51.3 °F 29.7 in West 2.9 mph 6 mph 54% 0 in 67 W/m2
19:07 68.4 °F 51.1 °F 29.7 in WSW 4 mph 4 mph 54% 0 in 181 W/m2
19:12 68.4 °F 51.1 °F 29.7 in WSW 2 mph 4 mph 54% 0 in 42 W/m2
19:17 68 °F 51.3 °F 29.7 in NW 2.9 mph 7 mph 55% 0 in 35 W/m2
19:22 67.6 °F 51.4 °F 29.7 in West 2.9 mph 6 mph 56% 0 in 35 W/m2
19:27 67.3 °F 51.4 °F 29.7 in WSW 2 mph 7 mph 57% 0 in 30 W/m2
19:32 66.7 °F 51.1 °F 29.7 in West 4 mph 4 mph 57% 0 in 25 W/m2
19:37 66.4 °F 51.1 °F 29.7 in WSW 4.9 mph 7 mph 58% 0 in 26 W/m2
19:42 66 °F 50.9 °F 29.7 in WSW 4 mph 6 mph 58% 0 in 23 W/m2
19:47 65.8 °F 50.7 °F 29.7 in West 2.9 mph 6 mph 58% 0 in 19 W/m2
19:52 65.5 °F 50.7 °F 29.7 in WNW 4 mph 5 mph 59% 0 in 18 W/m2
19:57 65.5 °F 50.7 °F 29.7 in SW 2 mph 6 mph 59% 0 in 16 W/m2
20:02 65.1 °F 50.9 °F 29.7 in SW 4 mph 6 mph 60% 0 in 14 W/m2
20:07 64.9 °F 50.7 °F 29.7 in West 2 mph 8 mph 60% 0 in 9 W/m2
20:12 64.8 °F 50.5 °F 29.7 in West 2.9 mph 7 mph 60% 0 in 7 W/m2
20:17 64.8 °F 50.5 °F 29.7 in West 2 mph 4 mph 60% 0 in 5 W/m2
20:22 64.6 °F 50.9 °F 29.7 in WSW 2 mph 4 mph 61% 0 in 5 W/m2
20:27 64.2 °F 50.5 °F 29.7 in West 0.9 mph 2 mph 61% 0 in 0 W/m2
20:32 64 °F 50.7 °F 29.7 in WSW 2 mph 2 mph 62% 0 in 0 W/m2
20:37 63.7 °F 50.4 °F 29.7 in Calm   2 mph 62% 0 in 0 W/m2
20:43 63.5 °F 50.7 °F 29.7 in WSW 0.9 mph 3 mph 63% 0 in 0 W/m2
20:48 63.3 °F 50.5 °F 29.7 in WSW 0.9 mph 2 mph 63% 0 in 0 W/m2
20:53 63.1 °F 50.7 °F 29.7 in NW 0.9 mph 3 mph 64% 0 in 0 W/m2
20:58 63 °F 51.1 °F 29.7 in NW 0.9 mph 2 mph 65% 0 in 0 W/m2
21:03 62.8 °F 51.3 °F 29.7 in Calm   1 mph 66% 0 in 0 W/m2
21:08 62.4 °F 50.9 °F 29.7 in Calm   3 mph 66% 0 in 0 W/m2
21:13 62.4 °F 51.3 °F 29.7 in West 0.9 mph 1 mph 67% 0 in 0 W/m2
21:18 62.2 °F 51.1 °F 29.7 in Calm   3 mph 67% 0 in 0 W/m2
21:23 62.1 °F 51.4 °F 29.7 in Calm     68% 0 in 0 W/m2
21:28 61.9 °F 50.7 °F 29.7 in Calm   1 mph 67% 0 in 0 W/m2
21:33 61.7 °F 51.1 °F 29.7 in Calm     68% 0 in 0 W/m2
21:38 61.3 °F 51.1 °F 29.7 in Calm     69% 0 in 0 W/m2
21:43 61.2 °F 51.3 °F 29.7 in West 0.9 mph 2 mph 70% 0 in 0 W/m2
21:48 61 °F 51.4 °F 29.7 in West 0.9 mph 2 mph 71% 0 in 0 W/m2
21:53 60.4 °F 51.4 °F 29.7 in Calm     72% 0 in 0 W/m2
21:58 60.3 °F 51.6 °F 29.7 in West 0.9 mph 2 mph 73% 0 in 0 W/m2
22:03 59.7 °F 51.4 °F 29.7 in Calm   3 mph 74% 0 in 0 W/m2
22:08 59.5 °F 51.3 °F 29.7 in Calm   1 mph 74% 0 in 0 W/m2
22:13 59.4 °F 51.4 °F 29.7 in Calm   3 mph 75% 0 in 0 W/m2
22:18 59.2 °F 51.6 °F 29.7 in Calm     76% 0 in 0 W/m2
22:23 58.8 °F 51.3 °F 29.7 in Calm     76% 0 in 0 W/m2
22:28 58.6 °F 51.4 °F 29.7 in Calm     77% 0 in 0 W/m2
22:33 58.3 °F 51.1 °F 29.7 in SW 0.9 mph 3 mph 77% 0 in 0 W/m2
22:38 57.9 °F 50.7 °F 29.7 in Calm   1 mph 77% 0 in 0 W/m2
22:43 57.7 °F 50.9 °F 29.7 in Calm   3 mph 78% 0 in 0 W/m2
22:48 57.6 °F 51.1 °F 29.7 in Calm     79% 0 in 0 W/m2
22:53 57.4 °F 50.9 °F 29.7 in Calm   1 mph 79% 0 in 0 W/m2
22:58 57.4 °F 51.3 °F 29.7 in Calm   1 mph 80% 0 in 0 W/m2
23:03 57 °F 50.9 °F 29.7 in Calm     80% 0 in 0 W/m2
23:08 57 °F 50.9 °F 29.7 in Calm     80% 0 in 0 W/m2
23:13 56.8 °F 50.7 °F 29.7 in Calm     80% 0 in 0 W/m2
23:19 56.5 °F 50.4 °F 29.7 in Calm     80% 0 in 0 W/m2
23:24 56.3 °F 50.5 °F 29.7 in Calm   1 mph 81% 0 in 0 W/m2
23:29 56.1 °F 50.4 °F 29.7 in Calm     81% 0 in 0 W/m2
23:34 55.9 °F 50.2 °F 29.7 in Calm   1 mph 81% 0 in 0 W/m2
23:39 55.8 °F 50.4 °F 29.7 in Calm     82% 0 in 0 W/m2
23:44 55.8 °F 50.4 °F 29.7 in Calm     82% 0 in 0 W/m2
23:49 55.8 °F 50.7 °F 29.7 in Calm     83% 0 in 0 W/m2
23:54 55.8 °F 50.7 °F 29.7 in Calm     83% 0 in 0 W/m2
23:59 55.6 °F 50.5 °F 29.7 in Calm     83% 0 in 0 W/m2
Juneau County Weather
Compliments of Weather Underground - 4 mb